Time;durP1;ratioP1;P1;durP2;ratioP2;P2;SDS_P1;SDS_P2;PMS_P1;PMS_P2;Temp;Humidity;BMP_temperature;BMP_pressure;BME280_temperature;BME280_humidity;BME280_pressure;Samples;Min_cycle;Max_cycle;Signal;HPM_P1;HPM_P2
2021/07/18 00:00:34;;;;;;;12.35;6.28;;;20.40;67.50;;;;;;5013694;28;20026;-91
2021/07/18 00:03:00;;;;;;;10.13;6.55;;;20.40;69.20;;;;;;5011157;28;20052;-89
2021/07/18 00:05:25;;;;;;;7.40;5.75;;;20.30;68.30;;;;;;5011962;28;20028;-93
2021/07/18 00:07:51;;;;;;;8.68;6.32;;;20.30;68.90;;;;;;5010699;28;20029;-92
2021/07/18 00:10:17;;;;;;;9.45;6.13;;;20.30;69.30;;;;;;5011844;28;20510;-91
2021/07/18 00:12:43;;;;;;;8.85;5.88;;;20.30;70.20;;;;;;5012861;28;20034;-92
2021/07/18 00:15:11;;;;;;;9.70;6.03;;;20.20;68.90;;;;;;5012174;28;20390;-90
2021/07/18 00:17:38;;;;;;;12.80;6.03;;;20.20;68.60;;;;;;5011278;28;20104;-91
2021/07/18 00:20:08;;;;;;;9.98;6.15;;;20.20;68.40;;;;;;5012739;28;20038;-92
2021/07/18 00:22:34;;;;;;;9.55;6.45;;;20.00;69.70;;;;;;4999373;28;20622;-91
2021/07/18 00:24:59;;;;;;;13.93;6.90;;;20.00;69.30;;;;;;5013284;28;20096;-90
2021/07/18 00:27:25;;;;;;;10.05;6.13;;;19.90;70.20;;;;;;5011014;28;20494;-92
2021/07/18 00:29:51;;;;;;;11.30;6.20;;;19.90;69.60;;;;;;5010184;28;20060;-90
2021/07/18 00:32:16;;;;;;;10.48;6.30;;;19.90;71.90;;;;;;5012613;28;20029;-92
2021/07/18 00:34:42;;;;;;;12.70;7.15;;;19.80;73.00;;;;;;5010293;28;20026;-91
2021/07/18 00:37:08;;;;;;;13.63;6.53;;;19.80;72.10;;;;;;5012159;28;20079;-91
2021/07/18 00:39:33;;;;;;;11.07;6.22;;;19.80;71.80;;;;;;5011115;28;20585;-92
2021/07/18 00:41:59;;;;;;;11.20;6.05;;;19.70;71.70;;;;;;5011074;28;20033;-93
2021/07/18 00:44:25;;;;;;;11.05;5.85;;;19.70;72.40;;;;;;5011163;28;20033;-91
2021/07/18 00:46:50;;;;;;;13.82;6.10;;;19.70;72.60;;;;;;5012341;28;20033;-91
2021/07/18 00:49:16;;;;;;;10.40;6.13;;;19.70;72.90;;;;;;5012254;28;20041;-90
2021/07/18 00:51:41;;;;;;;11.15;6.38;;;19.70;71.30;;;;;;5013006;28;20025;-91
2021/07/18 00:54:07;;;;;;;13.27;6.43;;;19.70;72.20;;;;;;5009828;28;20099;-92
2021/07/18 00:56:34;;;;;;;9.20;5.88;;;19.60;71.10;;;;;;5011370;28;20034;-91
2021/07/18 00:59:00;;;;;;;8.52;6.00;;;19.60;73.10;;;;;;5012517;28;20034;-89
2021/07/18 01:01:27;;;;;;;11.85;6.25;;;19.60;72.30;;;;;;5011004;28;20034;-91
2021/07/18 01:03:53;;;;;;;10.82;6.38;;;19.60;73.40;;;;;;5008540;28;20108;-92
2021/07/18 01:06:18;;;;;;;10.23;6.00;;;19.50;72.90;;;;;;5009740;28;20142;-92
2021/07/18 01:08:44;;;;;;;7.78;5.05;;;19.50;72.90;;;;;;5010247;28;20084;-91
2021/07/18 01:11:10;;;;;;;12.10;5.68;;;19.40;72.50;;;;;;5009421;28;20029;-90
2021/07/18 01:13:36;;;;;;;11.10;6.05;;;19.40;70.90;;;;;;5009600;28;20030;-91
2021/07/18 01:16:01;;;;;;;8.45;5.55;;;19.40;71.20;;;;;;5012028;28;20030;-91
2021/07/18 01:18:27;;;;;;;9.43;5.72;;;19.40;74.10;;;;;;5009228;28;20108;-90
2021/07/18 01:20:53;;;;;;;12.88;5.80;;;19.40;70.90;;;;;;5008522;28;20117;-92
2021/07/18 01:23:19;;;;;;;11.43;5.65;;;19.40;71.60;;;;;;5010042;28;20135;-92
2021/07/18 01:25:48;;;;;;;10.27;5.40;;;19.40;71.10;;;;;;5010465;28;20054;-91
2021/07/18 01:28:14;;;;;;;10.38;5.43;;;19.40;71.60;;;;;;5012035;28;20121;-91
2021/07/18 01:30:40;;;;;;;8.63;5.28;;;19.40;71.10;;;;;;5011730;28;20139;-90
2021/07/18 01:33:06;;;;;;;10.65;5.13;;;19.40;71.80;;;;;;5009858;28;20033;-91
2021/07/18 01:35:32;;;;;;;7.63;4.90;;;19.40;71.90;;;;;;5010253;28;20045;-90
2021/07/18 01:37:59;;;;;;;10.20;5.35;;;19.40;72.60;;;;;;5010310;28;20030;-91
2021/07/18 01:40:25;;;;;;;10.27;5.28;;;19.30;73.10;;;;;;4995842;28;20054;-90
2021/07/18 01:42:52;;;;;;;9.98;5.40;;;19.30;72.00;;;;;;5012414;28;20036;-90
2021/07/18 01:45:18;;;;;;;9.63;5.25;;;19.30;71.70;;;;;;5010169;28;20105;-91
2021/07/18 01:47:46;;;;;;;10.93;5.00;;;19.30;71.70;;;;;;5009024;28;20053;-92
2021/07/18 01:50:12;;;;;;;10.43;5.60;;;19.30;72.00;;;;;;5008709;28;20061;-92
2021/07/18 01:52:38;;;;;;;9.30;5.40;;;19.30;71.50;;;;;;5010251;28;20057;-91
2021/07/18 01:55:04;;;;;;;8.68;5.00;;;19.20;71.50;;;;;;5012238;28;20030;-90
2021/07/18 01:57:30;;;;;;;8.00;4.65;;;19.20;71.60;;;;;;5011086;28;20037;-91
2021/07/18 01:59:56;;;;;;;7.78;4.80;;;19.20;71.90;;;;;;5009958;28;20402;-92
2021/07/18 02:02:22;;;;;;;7.30;4.90;;;19.30;72.40;;;;;;5009230;28;20115;-90
2021/07/18 02:04:51;;;;;;;7.88;5.03;;;19.30;72.00;;;;;;5009963;28;20034;-92
2021/07/18 02:07:17;;;;;;;8.88;4.65;;;19.20;71.40;;;;;;5011493;28;20093;-92
2021/07/18 02:09:43;;;;;;;9.48;5.18;;;19.20;72.50;;;;;;5011839;28;20490;-91
2021/07/18 02:12:10;;;;;;;9.20;4.65;;;19.20;72.70;;;;;;5009951;28;20026;-91
2021/07/18 02:14:38;;;;;;;9.95;4.97;;;19.00;73.00;;;;;;5004267;28;20037;-89
2021/07/18 02:17:04;;;;;;;7.85;5.18;;;19.00;72.40;;;;;;5009705;28;20114;-92
2021/07/18 02:19:31;;;;;;;8.25;5.05;;;18.90;72.90;;;;;;5011118;28;20027;-91
2021/07/18 02:21:57;;;;;;;10.50;5.65;;;18.90;74.30;;;;;;5014306;28;20469;-88
2021/07/18 02:24:23;;;;;;;10.10;5.20;;;18.90;73.40;;;;;;5014352;28;20478;-91
2021/07/18 02:26:49;;;;;;;8.80;5.00;;;18.80;76.10;;;;;;5013476;28;20052;-91
2021/07/18 02:29:14;;;;;;;14.00;5.68;;;18.80;74.30;;;;;;5007852;28;20089;-91
2021/07/18 02:31:41;;;;;;;7.93;5.05;;;18.80;74.50;;;;;;5012442;28;20054;-92
2021/07/18 02:34:06;;;;;;;10.15;5.20;;;18.80;75.30;;;;;;5014794;28;20030;-91
2021/07/18 02:36:33;;;;;;;8.98;4.88;;;18.80;75.20;;;;;;5014228;28;20032;-91
2021/07/18 02:38:59;;;;;;;8.32;5.00;;;18.80;75.00;;;;;;5014866;28;20124;-91
2021/07/18 02:41:26;;;;;;;11.68;5.43;;;18.70;75.20;;;;;;5012096;28;20406;-90
2021/07/18 02:43:51;;;;;;;7.03;4.45;;;18.70;74.30;;;;;;5015762;28;20022;-91
2021/07/18 02:46:17;;;;;;;8.27;5.13;;;18.60;74.30;;;;;;5013349;28;20040;-90
2021/07/18 02:48:43;;;;;;;11.52;5.15;;;18.60;75.40;;;;;;5015508;28;20496;-91
2021/07/18 02:51:09;;;;;;;10.15;5.53;;;18.60;75.40;;;;;;5013140;28;20034;-90
2021/07/18 02:53:35;;;;;;;11.32;5.28;;;18.50;76.00;;;;;;5013022;28;20152;-92
2021/07/18 02:56:00;;;;;;;7.85;5.10;;;18.40;75.40;;;;;;5014000;28;20041;-91
2021/07/18 02:58:26;;;;;;;8.20;4.90;;;18.40;75.20;;;;;;5014604;28;20026;-92
2021/07/18 03:00:51;;;;;;;7.88;5.30;;;18.40;74.80;;;;;;5014892;28;20074;-90
2021/07/18 03:03:18;;;;;;;9.23;5.18;;;18.40;76.00;;;;;;5012942;28;20048;-91
2021/07/18 03:05:44;;;;;;;9.98;5.18;;;18.40;75.80;;;;;;5012705;28;20080;-91
2021/07/18 03:08:10;;;;;;;10.57;5.07;;;18.40;74.80;;;;;;5011717;28;20458;-91
2021/07/18 03:10:36;;;;;;;7.35;5.03;;;18.40;75.80;;;;;;5013007;28;20033;-88
2021/07/18 03:13:01;;;;;;;8.75;5.25;;;18.30;76.00;;;;;;5015517;28;20061;-90
2021/07/18 03:15:27;;;;;;;8.80;4.95;;;18.30;75.20;;;;;;5012087;28;20025;-92
2021/07/18 03:17:53;;;;;;;7.90;5.47;;;18.30;75.50;;;;;;5011601;28;20482;-90
2021/07/18 03:20:19;;;;;;;8.63;4.93;;;18.30;76.10;;;;;;5012638;28;20072;-90
2021/07/18 03:22:46;;;;;;;9.50;4.82;;;18.20;75.90;;;;;;5012556;28;20495;-92
2021/07/18 03:25:14;;;;;;;8.50;4.82;;;18.20;77.10;;;;;;5013543;28;20067;-91
2021/07/18 03:27:40;;;;;;;9.75;4.93;;;18.20;76.60;;;;;;5014121;28;20041;-91
2021/07/18 03:30:08;;;;;;;8.68;5.05;;;18.10;76.20;;;;;;5001783;28;20510;-91
2021/07/18 03:32:34;;;;;;;7.45;4.50;;;18.10;75.90;;;;;;5016475;28;20026;-90
2021/07/18 03:35:01;;;;;;;10.75;5.18;;;18.00;79.00;;;;;;5003124;28;20542;-90
2021/07/18 03:37:27;;;;;;;10.50;5.03;;;18.00;77.60;;;;;;5012630;28;20493;-90
2021/07/18 03:39:53;;;;;;;9.13;5.50;;;17.90;76.60;;;;;;5011568;28;20030;-91
2021/07/18 03:42:19;;;;;;;8.40;5.00;;;18.00;77.40;;;;;;5013813;28;20041;-91
2021/07/18 03:44:44;;;;;;;9.15;4.57;;;17.90;77.50;;;;;;5010944;28;20445;-90
2021/07/18 03:47:10;;;;;;;11.80;4.97;;;17.90;77.70;;;;;;5011070;28;20022;-90
2021/07/18 03:49:36;;;;;;;8.82;5.00;;;17.90;77.60;;;;;;5010266;28;20028;-89
2021/07/18 03:52:02;;;;;;;10.85;5.30;;;17.90;79.00;;;;;;5010703;28;20064;-89
2021/07/18 03:54:28;;;;;;;10.13;5.05;;;17.80;77.60;;;;;;5011973;28;20544;-90
2021/07/18 03:56:53;;;;;;;7.18;4.45;;;17.80;81.00;;;;;;5010896;28;20065;-91
2021/07/18 03:59:19;;;;;;;10.27;5.20;;;17.80;76.90;;;;;;5011582;28;20032;-92
2021/07/18 04:01:45;;;;;;;7.95;4.30;;;17.80;77.60;;;;;;5013998;28;20046;-92
2021/07/18 04:04:10;;;;;;;9.18;4.95;;;17.80;78.80;;;;;;5012347;28;20060;-90
2021/07/18 04:06:36;;;;;;;7.18;4.45;;;17.80;78.80;;;;;;5011288;28;20034;-91
2021/07/18 04:09:02;;;;;;;7.68;4.70;;;17.80;76.80;;;;;;5011158;28;20026;-88
2021/07/18 04:11:28;;;;;;;6.38;3.95;;;17.70;77.80;;;;;;5012584;28;20026;-90
2021/07/18 04:13:53;;;;;;;8.90;4.97;;;17.80;78.30;;;;;;5011161;28;20018;-91
2021/07/18 04:16:19;;;;;;;8.68;4.75;;;17.70;76.70;;;;;;5011346;28;20030;-91
2021/07/18 04:18:45;;;;;;;6.68;4.78;;;17.70;77.40;;;;;;5014691;28;20040;-90
2021/07/18 04:21:10;;;;;;;9.27;4.90;;;17.70;77.60;;;;;;5011599;28;20542;-91
2021/07/18 04:23:36;;;;;;;11.60;4.60;;;17.70;77.60;;;;;;5011444;28;20022;-90
2021/07/18 04:26:02;;;;;;;7.15;4.20;;;17.70;77.90;;;;;;5010498;28;20038;-90
2021/07/18 04:28:28;;;;;;;8.52;3.88;;;17.70;77.90;;;;;;5009899;28;20486;-89
2021/07/18 04:30:53;;;;;;;5.93;4.22;;;17.70;77.90;;;;;;5010632;28;20041;-91
2021/07/18 04:33:19;;;;;;;6.28;4.15;;;17.80;78.40;;;;;;5010171;28;20491;-90
2021/07/18 04:35:45;;;;;;;6.47;4.03;;;17.80;78.10;;;;;;5010143;28;20084;-89
2021/07/18 04:38:10;;;;;;;7.45;4.00;;;17.80;76.90;;;;;;5011379;28;20447;-92
2021/07/18 04:40:36;;;;;;;5.72;3.90;;;17.70;77.60;;;;;;5011154;28;20026;-90
2021/07/18 04:43:03;;;;;;;7.82;4.15;;;17.80;77.40;;;;;;5013551;28;20034;-88
2021/07/18 04:45:29;;;;;;;5.65;3.50;;;17.80;76.60;;;;;;5011749;28;20044;-90
2021/07/18 04:47:57;;;;;;;7.80;4.00;;;17.80;77.60;;;;;;5009955;28;20021;-91
2021/07/18 04:50:25;;;;;;;7.60;4.18;;;17.80;78.00;;;;;;5009750;28;20030;-89
2021/07/18 04:52:51;;;;;;;7.15;3.83;;;17.80;78.60;;;;;;5011027;28;20490;-89
2021/07/18 04:55:18;;;;;;;7.30;3.63;;;17.80;77.70;;;;;;5012313;28;20053;-90
2021/07/18 04:57:44;;;;;;;8.45;4.15;;;17.70;77.80;;;;;;5012746;28;20022;-91
2021/07/18 05:00:12;;;;;;;5.90;3.65;;;17.80;77.40;;;;;;5010087;28;20041;-89
2021/07/18 05:02:39;;;;;;;6.00;3.70;;;17.80;77.80;;;;;;5013048;28;20022;-91
2021/07/18 05:05:08;;;;;;;8.10;3.70;;;17.80;77.40;;;;;;5012985;28;20034;-91
2021/07/18 05:07:59;;;;;;;8.27;4.25;;;17.90;78.60;;;;;;5009615;28;20029;-90
2021/07/18 05:10:26;;;;;;;8.05;3.78;;;17.90;77.80;;;;;;5009610;28;20086;-91
2021/07/18 05:12:55;;;;;;;6.93;3.58;;;17.90;78.30;;;;;;5013879;28;20479;-91
2021/07/18 05:15:22;;;;;;;7.72;3.80;;;17.90;78.20;;;;;;5010416;28;20117;-91
2021/07/18 05:17:48;;;;;;;8.40;4.20;;;17.90;78.40;;;;;;5012285;28;20022;-91
2021/07/18 05:20:16;;;;;;;5.90;3.88;;;18.00;77.50;;;;;;5009226;28;20030;-91
2021/07/18 05:22:41;;;;;;;8.43;3.80;;;18.00;77.90;;;;;;5009408;28;20038;-92
2021/07/18 05:25:09;;;;;;;6.93;3.90;;;18.10;78.50;;;;;;5011453;28;20026;-91
2021/07/18 05:27:35;;;;;;;7.13;4.20;;;18.10;77.10;;;;;;5011343;28;20017;-91
2021/07/18 05:30:02;;;;;;;6.47;3.80;;;18.10;77.90;;;;;;5010124;28;20050;-89
2021/07/18 05:32:27;;;;;;;6.25;4.32;;;18.10;78.20;;;;;;5009044;28;20029;-91
2021/07/18 05:34:53;;;;;;;11.18;4.05;;;18.10;77.70;;;;;;5011813;28;20409;-92
2021/07/18 05:37:19;;;;;;;10.35;4.85;;;18.10;78.00;;;;;;5000469;28;20091;-91
2021/07/18 05:39:44;;;;;;;6.45;4.00;;;18.20;78.40;;;;;;4995180;28;20073;-92
2021/07/18 05:42:10;;;;;;;8.02;3.83;;;18.20;78.50;;;;;;4995717;28;20402;-91
2021/07/18 05:44:36;;;;;;;7.38;4.20;;;18.20;77.90;;;;;;4994569;28;20018;-91
2021/07/18 05:47:02;;;;;;;5.45;4.40;;;18.30;78.10;;;;;;4996043;28;20041;-91
2021/07/18 05:49:27;;;;;;;7.93;4.35;;;18.30;78.00;;;;;;4995149;28;20110;-91
2021/07/18 05:51:53;;;;;;;9.85;4.53;;;18.30;78.80;;;;;;4994516;28;20034;-91
2021/07/18 05:54:19;;;;;;;6.72;4.45;;;18.40;79.00;;;;;;5004438;28;20119;-90
2021/07/18 05:56:44;;;;;;;7.18;4.82;;;18.40;79.30;;;;;;5003304;28;20500;-91
2021/07/18 05:59:10;;;;;;;10.18;4.97;;;18.40;78.70;;;;;;5010693;28;20028;-92
2021/07/18 06:01:35;;;;;;;9.45;4.90;;;18.40;79.60;;;;;;5010222;28;20117;-92
2021/07/18 06:04:01;;;;;;;6.40;4.65;;;18.50;80.30;;;;;;5011104;28;20108;-89
2021/07/18 06:06:27;;;;;;;6.90;4.40;;;18.50;78.70;;;;;;4994919;28;20034;-93
2021/07/18 06:08:52;;;;;;;5.75;4.15;;;18.50;78.80;;;;;;4999014;28;20030;-92
2021/07/18 06:11:18;;;;;;;9.00;4.85;;;18.60;78.40;;;;;;5007465;28;20029;-93
2021/07/18 06:13:44;;;;;;;8.25;4.68;;;18.60;78.30;;;;;;5006927;28;20057;-91
2021/07/18 06:16:10;;;;;;;8.35;4.45;;;18.70;78.10;;;;;;5002427;28;20026;-93
2021/07/18 06:18:36;;;;;;;8.93;4.55;;;18.80;78.20;;;;;;5006559;28;20018;-92
2021/07/18 06:21:03;;;;;;;7.20;4.68;;;18.70;77.70;;;;;;5007055;28;20033;-91
2021/07/18 06:23:28;;;;;;;8.60;4.35;;;18.80;77.40;;;;;;5008067;28;20042;-90
2021/07/18 06:25:54;;;;;;;6.85;4.28;;;18.90;78.30;;;;;;5009315;28;20018;-93
2021/07/18 06:28:19;;;;;;;5.97;4.32;;;18.90;78.40;;;;;;5002081;28;20453;-93
2021/07/18 06:30:45;;;;;;;7.20;4.40;;;19.00;77.40;;;;;;4999835;28;20037;-92
2021/07/18 06:33:11;;;;;;;8.45;4.07;;;19.00;77.80;;;;;;5001772;28;20071;-87
2021/07/18 06:35:36;;;;;;;6.57;3.95;;;19.10;78.30;;;;;;5008803;28;20026;-92
2021/07/18 06:38:04;;;;;;;7.88;4.35;;;19.10;77.90;;;;;;5008529;28;20537;-93
2021/07/18 06:40:30;;;;;;;7.57;4.50;;;19.10;78.20;;;;;;5007820;28;20054;-90
2021/07/18 06:42:55;;;;;;;6.47;3.75;;;19.20;78.00;;;;;;5011494;28;20069;-94
2021/07/18 06:45:21;;;;;;;5.90;3.80;;;19.30;78.30;;;;;;5008935;28;20018;-92
2021/07/18 06:47:46;;;;;;;7.60;4.30;;;19.30;78.00;;;;;;4998580;28;20058;-93
2021/07/18 06:50:12;;;;;;;5.68;3.92;;;19.40;78.30;;;;;;4995051;28;20031;-91
2021/07/18 06:52:38;;;;;;;5.85;3.60;;;19.50;77.80;;;;;;5009895;28;20537;-91
2021/07/18 06:55:04;;;;;;;7.25;3.70;;;19.50;77.50;;;;;;5010623;28;20022;-91
2021/07/18 06:57:30;;;;;;;6.57;3.63;;;19.60;77.30;;;;;;5011520;28;20167;-91
2021/07/18 06:59:55;;;;;;;6.45;3.92;;;19.70;78.30;;;;;;5009267;28;20500;-92
2021/07/18 07:02:21;;;;;;;6.25;3.33;;;19.80;77.10;;;;;;5010075;28;20561;-92
2021/07/18 07:04:47;;;;;;;6.68;3.55;;;19.80;77.80;;;;;;5009159;28;20084;-92
2021/07/18 07:07:12;;;;;;;6.47;3.20;;;20.00;77.00;;;;;;5011072;28;20048;-89
2021/07/18 07:09:38;;;;;;;5.65;3.40;;;20.00;76.90;;;;;;5013648;28;20018;-92
2021/07/18 07:12:04;;;;;;;6.03;3.08;;;20.10;76.70;;;;;;5012954;28;20030;-92
2021/07/18 07:14:30;;;;;;;7.18;3.10;;;20.20;76.40;;;;;;5011804;28;20085;-92
2021/07/18 07:16:55;;;;;;;5.22;3.08;;;20.30;77.30;;;;;;5011899;28;20030;-93
2021/07/18 07:19:21;;;;;;;4.68;2.97;;;20.30;76.30;;;;;;5013184;28;20037;-91
2021/07/18 07:21:47;;;;;;;5.28;3.28;;;20.40;76.20;;;;;;5020141;28;20383;-92
2021/07/18 07:24:13;;;;;;;7.00;2.92;;;20.50;76.40;;;;;;5017926;28;20048;-92
2021/07/18 07:26:38;;;;;;;9.88;3.15;;;20.50;75.70;;;;;;5017436;28;20106;-92
2021/07/18 07:29:04;;;;;;;5.53;3.03;;;20.60;75.70;;;;;;5013331;28;20050;-92
2021/07/18 07:31:30;;;;;;;4.95;2.65;;;20.70;75.30;;;;;;5013973;28;20562;-93
2021/07/18 07:33:56;;;;;;;4.55;2.72;;;20.70;76.00;;;;;;5014917;28;20121;-90
2021/07/18 07:36:22;;;;;;;5.20;2.70;;;20.80;75.10;;;;;;5013930;28;20394;-92
2021/07/18 07:38:48;;;;;;;5.75;2.60;;;20.80;74.70;;;;;;5014387;28;20034;-91
2021/07/18 07:41:14;;;;;;;4.68;2.50;;;20.80;74.10;;;;;;5012083;28;20034;-92
2021/07/18 07:43:40;;;;;;;4.63;2.40;;;20.90;74.20;;;;;;5011951;28;20061;-88
2021/07/18 07:46:06;;;;;;;3.42;2.10;;;21.00;74.10;;;;;;5014394;28;20121;-91
2021/07/18 07:48:31;;;;;;;3.28;2.30;;;21.00;74.10;;;;;;5013056;28;20026;-92
2021/07/18 07:50:57;;;;;;;5.00;2.10;;;21.10;73.50;;;;;;5014015;28;20105;-91
2021/07/18 07:53:24;;;;;;;4.35;2.50;;;21.10;73.60;;;;;;5010687;28;20018;-90
2021/07/18 07:55:50;;;;;;;3.72;2.20;;;21.20;73.30;;;;;;5018230;28;20049;-91
2021/07/18 07:58:16;;;;;;;5.40;2.65;;;21.20;73.30;;;;;;5013784;28;20018;-91
2021/07/18 08:00:42;;;;;;;5.53;2.13;;;21.30;73.50;;;;;;5013673;28;20030;-90
2021/07/18 08:03:09;;;;;;;5.38;2.25;;;21.30;73.20;;;;;;5013626;28;20038;-92
2021/07/18 08:05:35;;;;;;;5.35;2.55;;;21.30;73.20;;;;;;5010068;28;20029;-92
2021/07/18 08:08:01;;;;;;;3.22;2.10;;;21.30;73.00;;;;;;5010209;28;20030;-93
2021/07/18 08:10:27;;;;;;;5.07;2.78;;;21.40;73.30;;;;;;4997402;28;20570;-91
2021/07/18 08:12:53;;;;;;;6.32;2.42;;;21.50;73.40;;;;;;5015136;28;20104;-92
2021/07/18 08:15:19;;;;;;;4.55;2.35;;;21.60;73.40;;;;;;5011637;28;20061;-90
2021/07/18 08:17:45;;;;;;;5.28;2.60;;;21.60;73.00;;;;;;5011376;28;20483;-90
2021/07/18 08:20:15;;;;;;;4.93;2.38;;;21.70;72.70;;;;;;5008957;28;20084;-93
2021/07/18 08:22:41;;;;;;;5.28;2.38;;;21.70;72.40;;;;;;5011134;28;20065;-92
2021/07/18 08:25:08;;;;;;;4.03;2.20;;;21.80;72.70;;;;;;5013450;28;20467;-92
2021/07/18 08:27:34;;;;;;;3.35;2.25;;;21.80;72.60;;;;;;5007018;28;20033;-93
2021/07/18 08:30:00;;;;;;;4.72;2.00;;;21.90;72.70;;;;;;5004424;28;20038;-92
2021/07/18 08:32:26;;;;;;;5.95;2.15;;;21.90;73.20;;;;;;5002210;28;20037;-92
2021/07/18 08:34:52;;;;;;;3.33;2.17;;;21.90;72.00;;;;;;5009394;28;20032;-90
2021/07/18 08:37:17;;;;;;;5.20;2.13;;;22.00;72.10;;;;;;5011649;28;20042;-91
2021/07/18 08:39:43;;;;;;;4.15;2.20;;;22.00;71.70;;;;;;5011933;28;20030;-92
2021/07/18 08:42:11;;;;;;;4.82;2.30;;;22.10;71.30;;;;;;5012569;28;20107;-92
2021/07/18 08:44:37;;;;;;;4.53;2.40;;;22.10;71.00;;;;;;5010011;28;20041;-92
2021/07/18 08:47:03;;;;;;;2.92;2.00;;;22.20;71.60;;;;;;5011543;28;20639;-93
2021/07/18 08:49:28;;;;;;;4.00;2.10;;;22.20;71.30;;;;;;5012079;28;20022;-90
2021/07/18 08:51:54;;;;;;;5.75;2.72;;;22.20;71.20;;;;;;5012612;28;20026;-91
2021/07/18 08:54:23;;;;;;;5.45;2.40;;;22.30;71.20;;;;;;5010960;28;20030;-91
2021/07/18 08:56:49;;;;;;;3.80;2.15;;;22.40;71.30;;;;;;5011455;28;20030;-93
2021/07/18 08:59:14;;;;;;;5.35;2.40;;;22.40;71.10;;;;;;5003478;28;20038;-92
2021/07/18 09:01:42;;;;;;;4.25;2.17;;;22.50;71.50;;;;;;4998421;28;20441;-93
2021/07/18 09:04:08;;;;;;;3.25;2.22;;;22.60;71.20;;;;;;5011841;28;20061;-91
2021/07/18 09:06:46;;;;;;;3.85;2.15;;;22.60;70.50;;;;;;5006233;28;20061;-92
2021/07/18 09:09:17;;;;;;;3.50;2.10;;;22.70;70.70;;;;;;5010484;28;20376;-93
2021/07/18 09:11:53;;;;;;;3.03;2.33;;;22.70;70.60;;;;;;5010727;28;20120;-93
2021/07/18 09:14:19;;;;;;;3.55;2.22;;;22.80;70.70;;;;;;5010339;28;20052;-92
2021/07/18 09:16:44;;;;;;;3.42;2.03;;;22.80;69.80;;;;;;5009374;28;20479;-92
2021/07/18 09:19:24;;;;;;;3.85;2.00;;;22.90;70.20;;;;;;5010977;28;20026;-91
2021/07/18 09:22:05;;;;;;;3.63;2.00;;;23.00;70.10;;;;;;5012279;28;20068;-92
2021/07/18 09:24:44;;;;;;;3.35;2.10;;;23.00;69.50;;;;;;5011530;28;20087;-92
2021/07/18 09:27:27;;;;;;;4.85;2.53;;;23.00;69.30;;;;;;5012779;28;20540;-91
2021/07/18 09:30:06;;;;;;;3.17;2.00;;;23.00;69.20;;;;;;5005109;28;20077;-93
2021/07/18 09:32:34;;;;;;;3.25;1.88;;;23.10;69.20;;;;;;5003960;28;20035;-87
2021/07/18 09:35:05;;;;;;;4.65;2.35;;;23.10;68.90;;;;;;4993515;28;20030;-82
2021/07/18 09:37:36;;;;;;;5.70;2.33;;;23.30;68.90;;;;;;4995408;28;20030;-79
2021/07/18 09:40:06;;;;;;;3.88;2.30;;;23.30;68.40;;;;;;5012088;28;20025;-80
2021/07/18 09:42:37;;;;;;;3.72;2.15;;;23.30;67.90;;;;;;5003939;28;20038;-81
2021/07/18 09:45:17;;;;;;;3.67;2.10;;;23.40;68.30;;;;;;5007685;28;20064;-82
2021/07/18 09:47:55;;;;;;;7.60;2.58;;;23.40;67.70;;;;;;5019740;28;20108;-82
2021/07/18 09:50:25;;;;;;;2.97;1.85;;;23.50;67.00;;;;;;5006555;28;20061;-82
2021/07/18 09:53:03;;;;;;;4.20;2.20;;;23.40;66.80;;;;;;5021811;28;20022;-82
2021/07/18 09:55:28;;;;;;;4.13;2.10;;;23.50;67.40;;;;;;4999207;28;20030;-82
2021/07/18 09:57:54;;;;;;;5.53;2.20;;;23.60;67.50;;;;;;5011985;28;20088;-82
2021/07/18 10:00:22;;;;;;;4.15;2.35;;;23.60;67.00;;;;;;5008120;28;20030;-82
2021/07/18 10:02:51;;;;;;;6.32;2.20;;;23.70;66.30;;;;;;5008680;28;20037;-82
2021/07/18 10:05:30;;;;;;;3.08;1.80;;;23.60;66.70;;;;;;5016053;28;20076;-82
2021/07/18 10:08:15;;;;;;;4.00;2.10;;;23.80;66.20;;;;;;5010313;28;20053;-82
2021/07/18 10:10:41;;;;;;;3.38;1.90;;;23.80;66.20;;;;;;4996469;28;20116;-82
2021/07/18 10:13:08;;;;;;;3.30;2.30;;;23.80;64.70;;;;;;5009950;28;20566;-82
2021/07/18 10:15:34;;;;;;;4.82;2.13;;;23.80;63.10;;;;;;5003933;28;20030;-82
2021/07/18 10:18:00;;;;;;;3.55;1.98;;;23.90;64.00;;;;;;5007446;28;20026;-82
2021/07/18 10:20:26;;;;;;;4.75;1.92;;;23.90;63.70;;;;;;5010456;28;20030;-82
2021/07/18 10:22:56;;;;;;;4.32;2.20;;;24.00;63.40;;;;;;5019750;28;20030;-82
2021/07/18 10:25:24;;;;;;;3.58;1.95;;;24.00;63.70;;;;;;5009685;28;20411;-82
2021/07/18 10:27:50;;;;;;;3.25;1.73;;;24.00;62.50;;;;;;5011417;28;20026;-82
2021/07/18 10:30:18;;;;;;;3.90;1.70;;;24.10;62.30;;;;;;5003548;28;20046;-82
2021/07/18 10:32:46;;;;;;;2.20;1.77;;;24.10;63.10;;;;;;5007016;28;20022;-82
2021/07/18 10:35:12;;;;;;;4.07;1.60;;;24.20;62.10;;;;;;5008569;28;20058;-82
2021/07/18 10:37:39;;;;;;;3.33;1.60;;;24.20;61.60;;;;;;5007464;28;20031;-82
2021/07/18 10:40:13;;;;;;;3.55;1.67;;;24.20;62.60;;;;;;5010774;28;20022;-82
2021/07/18 10:42:39;;;;;;;3.75;1.88;;;24.30;62.10;;;;;;5011378;28;20125;-82
2021/07/18 10:45:22;;;;;;;4.00;1.98;;;24.30;62.30;;;;;;5011929;28;20049;-82
2021/07/18 10:48:02;;;;;;;;;;;24.40;62.10;;;;;;5014131;28;20026;-82
2021/07/18 10:50:42;;;;;;;4.85;2.10;;;24.40;62.40;;;;;;5013210;28;20000;-83
2021/07/18 10:53:21;;;;;;;2.95;1.58;;;24.50;61.90;;;;;;5013600;28;20641;-81
2021/07/18 10:55:49;;;;;;;4.88;2.05;;;24.60;61.20;;;;;;5017522;28;20114;-82
2021/07/18 10:58:39;;;;;;;3.70;1.70;;;24.60;61.50;;;;;;5012403;28;20026;-82
2021/07/18 11:01:07;;;;;;;2.25;1.42;;;24.60;60.90;;;;;;5011547;28;20033;-82
2021/07/18 11:03:35;;;;;;;2.42;1.50;;;24.70;60.00;;;;;;5013521;28;20030;-82
2021/07/18 11:06:21;;;;;;;3.83;1.40;;;24.60;59.40;;;;;;5011762;28;20396;-82
2021/07/18 11:09:05;;;;;;;3.35;1.67;;;24.70;59.20;;;;;;5010352;28;20487;-82
2021/07/18 11:11:55;;;;;;;2.83;1.55;;;24.80;58.80;;;;;;5011897;28;20026;-81
2021/07/18 11:14:26;;;;;;;3.95;1.63;;;24.70;59.60;;;;;;5011310;28;20400;-81
2021/07/18 11:17:00;;;;;;;2.67;1.58;;;24.70;59.20;;;;;;5011840;28;20033;-81
2021/07/18 11:20:01;;;;;;;3.20;1.75;;;24.70;58.40;;;;;;5010571;28;20041;-81
2021/07/18 11:22:56;;;;;;;2.65;1.80;;;24.70;57.60;;;;;;5002837;28;20061;-80
2021/07/18 11:26:02;;;;;;;2.83;1.60;;;24.80;58.80;;;;;;5011381;28;20030;-80
2021/07/18 11:28:27;;;;;;;2.90;1.50;;;24.90;58.00;;;;;;4943445;29;20035;-81
2021/07/18 11:31:13;;;;;;;4.88;2.20;;;24.90;57.40;;;;;;4933872;29;20042;-80
2021/07/18 11:33:52;;;;;;;1.58;1.27;;;24.90;58.10;;;;;;4952264;29;20074;-80
2021/07/18 11:36:21;;;;;;;4.18;1.60;;;24.90;57.50;;;;;;4953508;29;20187;-81
2021/07/18 11:38:48;;;;;;;2.45;1.30;;;25.00;57.10;;;;;;4953478;29;20039;-82
2021/07/18 11:41:40;;;;;;;2.60;1.50;;;25.00;56.90;;;;;;4932635;29;20086;-81
2021/07/18 11:44:06;;;;;;;2.90;1.48;;;25.00;57.20;;;;;;4937450;29;20043;-82
2021/07/18 11:46:37;;;;;;;2.20;1.23;;;25.10;56.20;;;;;;4953692;29;20031;-82
2021/07/18 11:49:04;;;;;;;3.92;1.52;;;25.00;57.00;;;;;;4953562;29;20046;-82
2021/07/18 11:51:33;;;;;;;4.32;1.33;;;25.10;55.50;;;;;;4953255;29;20041;-82
2021/07/18 11:53:59;;;;;;;3.05;1.50;;;25.20;56.20;;;;;;4936514;28;20037;-81
2021/07/18 11:56:32;;;;;;;3.50;1.65;;;25.20;55.80;;;;;;4932744;29;20035;-82
2021/07/18 11:59:06;;;;;;;1.77;1.30;;;25.20;56.60;;;;;;4976485;28;20454;-82
2021/07/18 12:01:34;;;;;;;4.40;1.63;;;25.30;54.70;;;;;;4995615;28;20037;-82
2021/07/18 12:04:00;;;;;;;2.75;1.17;;;25.40;53.80;;;;;;5012746;28;20026;-82
2021/07/18 12:06:28;;;;;;;3.10;1.25;;;25.30;53.70;;;;;;5011418;28;20133;-82
2021/07/18 12:08:54;;;;;;;2.88;1.30;;;25.30;54.70;;;;;;5010496;28;20117;-82
2021/07/18 12:11:29;;;;;;;2.63;1.42;;;25.30;54.80;;;;;;5011876;28;20453;-82
2021/07/18 12:13:57;;;;;;;2.85;1.50;;;25.50;54.00;;;;;;5010667;28;20021;-81
2021/07/18 12:16:25;;;;;;;2.67;1.40;;;25.50;53.60;;;;;;5011473;28;20027;-82
2021/07/18 12:18:52;;;;;;;2.30;1.25;;;25.60;53.80;;;;;;5013000;28;20401;-82
2021/07/18 12:21:21;;;;;;;2.72;1.60;;;25.50;54.20;;;;;;5010439;28;20038;-82
2021/07/18 12:24:15;;;;;;;3.65;1.70;;;25.60;54.40;;;;;;5010483;28;20033;-82
2021/07/18 12:27:03;;;;;;;3.65;1.40;;;25.80;53.60;;;;;;5010250;28;20029;-82
2021/07/18 12:29:34;;;;;;;1.85;1.50;;;25.80;52.70;;;;;;5007882;28;20124;-82
2021/07/18 12:32:02;;;;;;;2.75;1.55;;;25.80;53.40;;;;;;5009334;28;20478;-82
2021/07/18 12:34:34;;;;;;;2.92;1.63;;;25.80;51.90;;;;;;4993960;28;20018;-82
2021/07/18 12:37:02;;;;;;;3.08;1.60;;;25.80;53.50;;;;;;5012129;28;20030;-82
2021/07/18 12:39:39;;;;;;;2.40;1.52;;;25.80;51.00;;;;;;5009387;28;20029;-82
2021/07/18 12:42:08;;;;;;;4.47;1.55;;;25.90;52.50;;;;;;5010001;28;20034;-82
2021/07/18 12:44:36;;;;;;;3.50;1.60;;;25.90;51.80;;;;;;5009940;28;20503;-82
2021/07/18 12:47:23;;;;;;;3.15;1.52;;;26.00;52.80;;;;;;5009631;28;20061;-81
2021/07/18 12:50:11;;;;;;;2.30;1.30;;;26.00;52.20;;;;;;5009987;28;20476;-82